Time;durP1;ratioP1;P1;durP2;ratioP2;P2;SDS_P1;SDS_P2;PMS_P1;PMS_P2;Temp;Humidity;BMP_temperature;BMP_pressure;BME280_temperature;BME280_humidity;BME280_pressure;Samples;Min_cycle;Max_cycle;Signal;HPM_P1;HPM_P2
2022/08/19 00:01:42;;;;;;;;;;;18.40;99.90;;;;;;4931192;29;19966;-84
2022/08/19 00:04:09;;;;;;;;;;;18.40;99.90;;;;;;4930982;29;19914;-84
2022/08/19 00:06:36;;;;;;;;;;;18.40;99.90;;;;;;4930975;29;20431;-85
2022/08/19 00:09:02;;;;;;;;;;;18.50;99.90;;;;;;4930968;29;19915;-86
2022/08/19 00:11:28;;;;;;;;;;;18.50;99.90;;;;;;4930660;29;19911;-84
2022/08/19 00:13:56;;;;;;;;;;;18.40;99.90;;;;;;4931049;29;20336;-85
2022/08/19 00:16:22;;;;;;;;;;;18.40;99.90;;;;;;4915353;29;19910;-85
2022/08/19 00:18:48;;;;;;;;;;;18.50;99.90;;;;;;4931143;29;19907;-84
2022/08/19 00:21:14;;;;;;;;;;;18.50;99.90;;;;;;4930868;29;19918;-85
2022/08/19 00:23:41;;;;;;;;;;;18.50;99.90;;;;;;4914591;29;19919;-83
2022/08/19 00:26:07;;;;;;;;;;;18.40;99.90;;;;;;4935178;29;19914;-82
2022/08/19 00:28:33;;;;;;;;;;;18.50;99.90;;;;;;4930667;29;19911;-83
2022/08/19 00:30:59;;;;;;;;;;;18.40;99.90;;;;;;4930685;29;19911;-84
2022/08/19 00:33:25;;;;;;;;;;;18.40;99.90;;;;;;4914776;29;19911;-84
2022/08/19 00:35:51;;;;;;;;;;;18.40;99.90;;;;;;4930497;29;19911;-82
2022/08/19 00:38:16;;;;;;;;;;;18.40;99.90;;;;;;4914960;29;20265;-83
2022/08/19 00:40:43;;;;;;;;;;;18.40;99.90;;;;;;4914598;29;19970;-84
2022/08/19 00:43:13;;;;;;;;;;;18.40;99.90;;;;;;4930515;29;19970;-82
2022/08/19 00:45:41;;;;;;;;;;;18.40;99.90;;;;;;4930565;29;19958;-85
2022/08/19 00:48:07;;;;;;;;;;;18.40;99.90;;;;;;4930437;29;19946;-84
2022/08/19 00:50:33;;;;;;;;;;;18.40;99.90;;;;;;4930539;29;19958;-83
2022/08/19 00:52:59;;;;;;;;;;;18.30;99.90;;;;;;4930358;29;19911;-84
2022/08/19 00:55:28;;;;;;;;;;;18.30;99.90;;;;;;4930449;29;19919;-85
2022/08/19 00:57:59;;;;;;;;;;;18.30;99.90;;;;;;4930177;29;20313;-84
2022/08/19 01:00:27;;;;;;;;;;;18.30;99.90;;;;;;4930323;29;19919;-85
2022/08/19 01:02:53;;;;;;;;;;;18.30;99.90;;;;;;4929987;29;20288;-84
2022/08/19 01:05:21;;;;;;;;;;;18.30;99.90;;;;;;4930092;29;19911;-83
2022/08/19 01:07:48;;;;;;;;;;;18.20;99.90;;;;;;4945768;28;20018;-83
2022/08/19 01:10:15;;;;;;;;;;;18.20;99.90;;;;;;4930194;29;19958;-83
2022/08/19 01:12:41;;;;;;;;;;;18.10;99.90;;;;;;4916477;29;19911;-83
2022/08/19 01:15:08;;;;;;;;;;;18.10;99.90;;;;;;4934078;29;19911;-83
2022/08/19 01:17:36;;;;;;;;;;;18.10;99.90;;;;;;4934027;29;19915;-83
2022/08/19 01:20:03;;;;;;;;;;;18.10;99.90;;;;;;4933757;29;19963;-85
2022/08/19 01:22:42;;;;;;;;;;;18.10;99.90;;;;;;4949771;29;19915;-85
2022/08/19 01:25:08;;;;;;;;;;;18.10;99.90;;;;;;4949889;29;20332;-83
2022/08/19 01:27:39;;;;;;;;;;;18.00;99.90;;;;;;4933865;29;19915;-83
2022/08/19 01:30:05;;;;;;;;;;;18.00;99.90;;;;;;4933742;29;19919;-84
2022/08/19 01:32:31;;;;;;;;;;;18.00;99.90;;;;;;4933652;29;19919;-83
2022/08/19 01:34:57;;;;;;;;;;;18.00;99.90;;;;;;4949549;29;19994;-83
2022/08/19 01:37:23;;;;;;;;;;;18.00;99.90;;;;;;4933594;29;19974;-83
2022/08/19 01:39:49;;;;;;;;;;;17.90;99.90;;;;;;4949295;29;19922;-83
2022/08/19 01:42:15;;;;;;;;;;;18.00;99.90;;;;;;4917608;29;19930;-83
2022/08/19 01:44:41;;;;;;;;;;;18.00;99.90;;;;;;4949389;29;20250;-83
2022/08/19 01:47:07;;;;;;;;;;;18.00;99.90;;;;;;4933464;29;19907;-83
2022/08/19 01:49:33;;;;;;;;;;;18.00;99.90;;;;;;4933366;29;19911;-83
2022/08/19 01:51:59;;;;;;;;;;;18.10;99.90;;;;;;4944621;29;19953;-83
2022/08/19 01:54:25;;;;;;;;;;;18.10;99.90;;;;;;4901727;29;19915;-83
2022/08/19 01:56:52;;;;;;;;;;;18.10;99.90;;;;;;4933122;29;20393;-84
2022/08/19 01:59:20;;;;;;;;;;;18.10;99.90;;;;;;4933276;29;20319;-83
2022/08/19 02:01:45;;;;;;;;;;;18.10;99.90;;;;;;4901393;29;19907;-83
2022/08/19 02:04:11;;;;;;;;;;;18.20;99.90;;;;;;4901446;29;19963;-84
2022/08/19 02:06:37;;;;;;;;;;;18.20;99.90;;;;;;4901403;29;19918;-86
2022/08/19 02:09:04;;;;;;;;;;;18.20;99.90;;;;;;4917088;29;19911;-84
2022/08/19 02:11:31;;;;;;;;;;;18.20;99.90;;;;;;4948935;28;20272;-83
2022/08/19 02:13:58;;;;;;;;;;;18.20;99.90;;;;;;4948947;28;19967;-83
2022/08/19 02:16:23;;;;;;;;;;;18.20;99.90;;;;;;4901232;29;19917;-83
2022/08/19 02:18:49;;;;;;;;;;;18.20;99.90;;;;;;4932652;29;19994;-83
2022/08/19 02:21:19;;;;;;;;;;;18.20;99.90;;;;;;4932632;29;19919;-83
2022/08/19 02:23:45;;;;;;;;;;;18.20;99.90;;;;;;4915729;29;19919;-84
2022/08/19 02:26:12;;;;;;;;;;;18.30;99.90;;;;;;4900984;29;20001;-86
2022/08/19 02:28:38;;;;;;;;;;;18.30;99.90;;;;;;4948545;28;20556;-83
2022/08/19 02:31:08;;;;;;;;;;;18.30;99.90;;;;;;4917901;29;19915;-84
2022/08/19 02:33:34;;;;;;;;;;;18.30;99.90;;;;;;4900766;29;19911;-83
2022/08/19 02:36:02;;;;;;;;;;;18.30;99.90;;;;;;4932604;29;19915;-83
2022/08/19 02:38:28;;;;;;;;;;;18.30;99.90;;;;;;4900750;29;19958;-84
2022/08/19 02:40:56;;;;;;;;;;;18.30;99.90;;;;;;4932522;29;19915;-85
2022/08/19 02:43:22;;;;;;;;;;;18.30;99.90;;;;;;4900755;29;19915;-83
2022/08/19 02:45:55;;;;;;;;;;;18.30;99.90;;;;;;4932258;29;20005;-84
2022/08/19 02:48:22;;;;;;;;;;;18.30;99.90;;;;;;4900682;29;19911;-83
2022/08/19 02:50:50;;;;;;;;;;;18.30;99.90;;;;;;4932228;29;20137;-82
2022/08/19 02:53:16;;;;;;;;;;;18.30;99.90;;;;;;4931917;29;19938;-83
2022/08/19 02:55:43;;;;;;;;;;;18.30;99.90;;;;;;4931858;29;19915;-83
2022/08/19 02:58:09;;;;;;;;;;;18.30;99.90;;;;;;4948012;28;19915;-83
2022/08/19 03:00:34;;;;;;;;;;;18.30;99.90;;;;;;4935012;29;19919;-83
2022/08/19 03:03:00;;;;;;;;;;;18.40;99.90;;;;;;4934996;29;19925;-84
2022/08/19 03:05:27;;;;;;;;;;;18.40;99.90;;;;;;4919281;29;20295;-83
2022/08/19 03:07:52;;;;;;;;;;;18.40;99.90;;;;;;4950963;28;19921;-83
2022/08/19 03:10:18;;;;;;;;;;;18.40;99.90;;;;;;4934973;29;20642;-84
2022/08/19 03:12:45;;;;;;;;;;;18.40;99.90;;;;;;4919186;29;20457;-83
2022/08/19 03:15:13;;;;;;;;;;;18.50;99.90;;;;;;4919185;29;19982;-86
2022/08/19 03:17:42;;;;;;;;;;;18.40;99.90;;;;;;4934787;29;20372;-84
2022/08/19 03:20:08;;;;;;;;;;;18.40;99.90;;;;;;4918843;29;20005;-83
2022/08/19 03:22:34;;;;;;;;;;;18.40;99.90;;;;;;4918857;29;20005;-83
2022/08/19 03:24:59;;;;;;;;;;;18.40;99.90;;;;;;4918747;29;19957;-84
2022/08/19 03:27:25;;;;;;;;;;;18.40;99.90;;;;;;4918850;29;19977;-84
2022/08/19 03:29:51;;;;;;;;;;;18.40;99.90;;;;;;4918925;29;19918;-85
2022/08/19 03:32:16;;;;;;;;;;;18.40;99.90;;;;;;4934656;29;19917;-82
2022/08/19 03:34:42;;;;;;;;;;;18.40;99.90;;;;;;4918422;29;19914;-83
2022/08/19 03:37:09;;;;;;;;;;;18.40;99.90;;;;;;4934430;29;19997;-83
2022/08/19 03:39:36;;;;;;;;;;;18.40;99.90;;;;;;4934392;29;19925;-84
2022/08/19 03:42:02;;;;;;;;;;;18.40;99.90;;;;;;4918492;29;19918;-82
2022/08/19 03:44:28;;;;;;;;;;;18.40;99.90;;;;;;4918654;29;19914;-83
2022/08/19 03:46:55;;;;;;;;;;;18.40;99.90;;;;;;4950187;28;19910;-83
2022/08/19 03:49:21;;;;;;;;;;;18.40;99.90;;;;;;4918573;29;19953;-83
2022/08/19 03:51:48;;;;;;;;;;;18.40;99.90;;;;;;4934166;29;19997;-82
2022/08/19 03:54:14;;;;;;;;;;;18.40;99.90;;;;;;4934209;29;19915;-83
2022/08/19 03:56:41;;;;;;;;;;;18.40;99.90;;;;;;4918329;29;19986;-83
2022/08/19 03:59:08;;;;;;;;;;;18.40;99.90;;;;;;4934231;29;19915;-83
2022/08/19 04:01:35;;;;;;;;;;;18.40;99.90;;;;;;4950150;28;19993;-83
2022/08/19 04:04:00;;;;;;;;;;;18.40;99.90;;;;;;4935026;29;19915;-83
2022/08/19 04:06:27;;;;;;;;;;;18.40;99.90;;;;;;4918275;29;20502;-84
2022/08/19 04:08:54;;;;;;;;;;;18.40;99.90;;;;;;4934060;29;19911;-83
2022/08/19 04:11:24;;;;;;;;;;;18.40;99.90;;;;;;4933995;29;19911;-83
2022/08/19 04:13:50;;;;;;;;;;;18.40;99.90;;;;;;4918096;29;19910;-83
2022/08/19 04:16:17;;;;;;;;;;;18.40;99.90;;;;;;4933709;29;19907;-83
2022/08/19 04:18:43;;;;;;;;;;;18.40;99.90;;;;;;4933992;29;19910;-84
2022/08/19 04:21:15;;;;;;;;;;;18.40;99.90;;;;;;4917988;29;20399;-83
2022/08/19 04:23:41;;;;;;;;;;;18.40;99.90;;;;;;4918085;29;20383;-83
2022/08/19 04:26:06;;;;;;;;;;;18.40;99.90;;;;;;4933859;29;19942;-82
2022/08/19 04:28:32;;;;;;;;;;;18.40;99.90;;;;;;4949716;29;20407;-83
2022/08/19 04:30:58;;;;;;;;;;;18.40;99.90;;;;;;4933534;29;20380;-84
2022/08/19 04:33:24;;;;;;;;;;;18.40;99.90;;;;;;4918103;29;20315;-84
2022/08/19 04:35:51;;;;;;;;;;;18.40;99.90;;;;;;4918138;29;19910;-83
2022/08/19 04:38:18;;;;;;;;;;;18.40;99.90;;;;;;4949744;28;19965;-82
2022/08/19 04:43:31;;;;;;;;;;;18.40;99.90;;;;;;4934831;29;19915;-84
2022/08/19 04:45:57;;;;;;;;;;;18.40;99.90;;;;;;4917697;29;19961;-83
2022/08/19 04:48:26;;;;;;;;;;;18.40;99.90;;;;;;4937045;29;19946;-83
2022/08/19 04:50:59;;;;;;;;;;;18.40;99.90;;;;;;4921565;29;20315;-86
2022/08/19 04:53:26;;;;;;;;;;;18.40;99.90;;;;;;4937601;29;20009;-83
2022/08/19 04:55:52;;;;;;;;;;;18.40;99.90;;;;;;4938579;29;19911;-84
2022/08/19 04:58:18;;;;;;;;;;;18.40;99.90;;;;;;4953712;28;19919;-83
2022/08/19 05:00:43;;;;;;;;;;;18.40;99.90;;;;;;4921582;29;19911;-83
2022/08/19 05:03:10;;;;;;;;;;;18.40;99.90;;;;;;4953541;28;20027;-83
2022/08/19 05:05:40;;;;;;;;;;;18.40;99.90;;;;;;4921577;29;20017;-83
2022/08/19 05:08:07;;;;;;;;;;;18.40;99.90;;;;;;4937437;29;19915;-82
2022/08/19 05:10:36;;;;;;;;;;;18.40;99.90;;;;;;4937169;29;19914;-83
2022/08/19 05:13:01;;;;;;;;;;;18.40;99.90;;;;;;4952946;28;20375;-83
2022/08/19 05:15:27;;;;;;;;;;;18.40;99.90;;;;;;4921205;29;19922;-84
2022/08/19 05:23:22;;;;;;;;;;;18.40;99.90;;;;;;4936943;29;19970;-83
2022/08/19 05:25:48;;;;;;;;;;;18.40;99.90;;;;;;4952902;28;20382;-85
2022/08/19 05:28:13;;;;;;;;;;;18.50;99.90;;;;;;4919988;29;19918;-85
2022/08/19 05:30:40;;;;;;;;;;;18.50;99.90;;;;;;4933797;29;19915;-85
2022/08/19 05:33:09;;;;;;;;;;;18.50;99.90;;;;;;4930568;29;20395;-84
2022/08/19 05:35:36;;;;;;;;;;;18.40;99.90;;;;;;4902598;29;19915;-87
2022/08/19 05:38:02;;;;;;;;;;;18.50;99.90;;;;;;4916235;29;19907;-87
2022/08/19 05:40:28;;;;;;;;;;;18.50;99.90;;;;;;4933568;29;19918;-85
2022/08/19 05:42:54;;;;;;;;;;;18.50;99.90;;;;;;4917581;29;20033;-84
2022/08/19 05:45:21;;;;;;;;;;;18.50;99.90;;;;;;4909067;29;19911;-85
2022/08/19 05:47:46;;;;;;;;;;;18.50;99.90;;;;;;4934033;29;19915;-85
2022/08/19 05:50:12;;;;;;;;;;;18.50;99.90;;;;;;4917975;29;19918;-83
2022/08/19 05:52:38;;;;;;;;;;;18.50;99.90;;;;;;4917551;29;19914;-85
2022/08/19 05:55:04;;;;;;;;;;;18.50;99.90;;;;;;4917278;29;20002;-85
2022/08/19 05:57:30;;;;;;;;;;;18.50;99.90;;;;;;4932666;29;19938;-84
2022/08/19 05:59:57;;;;;;;;;;;18.50;99.90;;;;;;4918120;29;20333;-85
2022/08/19 06:02:22;;;;;;;;;;;18.60;99.90;;;;;;4917076;29;19922;-85
2022/08/19 06:04:49;;;;;;;;;;;18.50;99.90;;;;;;4913905;29;20365;-86
2022/08/19 06:07:15;;;;;;;;;;;18.60;99.90;;;;;;4931185;29;20022;-85
2022/08/19 06:09:40;;;;;;;;;;;18.60;99.90;;;;;;4931535;29;20378;-84
2022/08/19 06:12:06;;;;;;;;;;;18.60;99.90;;;;;;4948834;29;19915;-85
2022/08/19 06:14:34;;;;;;;;;;;18.60;99.90;;;;;;4917436;29;19910;-85
2022/08/19 06:17:01;;;;;;;;;;;18.60;99.90;;;;;;4930139;29;19919;-84
2022/08/19 06:19:29;;;;;;;;;;;18.60;99.90;;;;;;4898699;29;19911;-85
2022/08/19 06:21:55;;;;;;;;;;;18.60;99.90;;;;;;4929179;29;20384;-84
2022/08/19 06:24:23;;;;;;;;;;;18.70;99.90;;;;;;4925540;29;19918;-85
2022/08/19 06:26:51;;;;;;;;;;;18.70;99.90;;;;;;4917412;29;20013;-84
2022/08/19 06:29:17;;;;;;;;;;;18.70;99.90;;;;;;4949031;28;20688;-84
2022/08/19 06:31:44;;;;;;;;;;;18.70;99.90;;;;;;4931710;29;19938;-85
2022/08/19 06:34:10;;;;;;;;;;;18.70;99.90;;;;;;4948844;28;20005;-85
2022/08/19 06:36:37;;;;;;;;;;;18.70;99.90;;;;;;4924498;29;20446;-84
2022/08/19 06:39:10;;;;;;;;;;;18.70;99.90;;;;;;4930173;29;20010;-85
2022/08/19 06:41:39;;;;;;;;;;;18.80;99.90;;;;;;4928911;29;19911;-85
2022/08/19 06:44:05;;;;;;;;;;;18.70;99.90;;;;;;4917207;29;19914;-85
2022/08/19 06:46:30;;;;;;;;;;;18.80;99.90;;;;;;4923573;29;19911;-85
2022/08/19 06:48:57;;;;;;;;;;;18.80;99.90;;;;;;4913752;29;20299;-84
2022/08/19 06:51:23;;;;;;;;;;;18.90;99.90;;;;;;4922802;29;20024;-83
2022/08/19 06:53:50;;;;;;;;;;;19.00;99.90;;;;;;4933909;29;20442;-84
2022/08/19 06:56:22;;;;;;;;;;;19.00;99.90;;;;;;4921231;29;19914;-84
2022/08/19 06:58:52;;;;;;;;;;;19.00;99.90;;;;;;4948694;28;19911;-84
2022/08/19 07:01:19;;;;;;;;;;;19.10;99.90;;;;;;4916667;29;20302;-85
2022/08/19 07:03:46;;;;;;;;;;;19.10;99.90;;;;;;4913796;29;20675;-84
2022/08/19 07:06:15;;;;;;;;;;;19.10;99.90;;;;;;4934002;29;20373;-84
2022/08/19 07:08:42;;;;;;;;;;;19.20;99.90;;;;;;4939666;29;19918;-84
2022/08/19 07:11:09;;;;;;;;;;;19.20;99.90;;;;;;4916098;29;20536;-84
2022/08/19 07:13:36;;;;;;;;;;;19.20;99.90;;;;;;4932782;29;20717;-84
2022/08/19 07:16:06;;;;;;;;;;;19.20;99.90;;;;;;4931498;29;19910;-85
2022/08/19 07:18:32;;;;;;;;;;;19.30;99.90;;;;;;4932540;29;19911;-84
2022/08/19 07:21:05;;;;;;;;;;;19.50;99.90;;;;;;4919240;29;19922;-85
2022/08/19 07:23:31;;;;;;;;;;;19.60;99.90;;;;;;4913670;29;20017;-85
2022/08/19 07:25:57;;;;;;;;;;;19.70;99.90;;;;;;4921522;29;19994;-84
2022/08/19 07:28:23;;;;;;;;;;;19.70;99.90;;;;;;4916456;29;19994;-85
2022/08/19 07:30:49;;;;;;;;;;;19.80;99.90;;;;;;4915941;29;19926;-85
2022/08/19 07:33:16;;;;;;;;;;;19.70;99.90;;;;;;4910665;29;19954;-86
2022/08/19 07:35:43;;;;;;;;;;;19.70;99.90;;;;;;4932433;29;20398;-83
2022/08/19 07:38:09;;;;;;;;;;;19.60;99.90;;;;;;4916450;29;19915;-83
2022/08/19 07:40:35;;;;;;;;;;;19.60;99.90;;;;;;4916188;29;20568;-84
2022/08/19 07:43:00;;;;;;;;;;;19.60;99.90;;;;;;4916337;29;19919;-84
2022/08/19 07:45:28;;;;;;;;;;;19.60;99.90;;;;;;4914980;29;20013;-83
2022/08/19 07:47:54;;;;;;;;;;;19.50;99.90;;;;;;4932799;29;19985;-83
2022/08/19 07:50:20;;;;;;;;;;;19.50;99.90;;;;;;4933332;29;19910;-83
2022/08/19 07:52:46;;;;;;;;;;;19.50;99.90;;;;;;4947791;29;19919;-83
2022/08/19 07:55:12;;;;;;;;;;;19.50;99.90;;;;;;4928350;29;20022;-84
2022/08/19 07:57:38;;;;;;;;;;;19.50;99.90;;;;;;4933483;29;20033;-84
2022/08/19 08:00:04;;;;;;;;;;;19.50;99.90;;;;;;4948008;28;19911;-84
2022/08/19 08:02:39;;;;;;;;;;;19.50;99.90;;;;;;4931148;29;19922;-83
2022/08/19 08:10:33;;;;;;;;;;;19.50;99.90;;;;;;4947474;28;19998;-83
2022/08/19 08:12:59;;;;;;;;;;;19.70;99.90;;;;;;4912461;29;19990;-82
2022/08/19 08:15:24;;;;;;;;;;;19.90;99.90;;;;;;4914078;29;19961;-83
2022/08/19 08:17:50;;;;;;;;;;;20.20;99.90;;;;;;4931790;29;19978;-85
2022/08/19 08:20:16;;;;;;;;;;;20.50;99.90;;;;;;4932966;29;20010;-82
2022/08/19 08:25:30;;;;;;;;;;;20.70;99.90;;;;;;4901807;29;20066;-82
2022/08/19 08:27:59;;;;;;;;;;;20.80;99.90;;;;;;4916174;29;19915;-83
2022/08/19 08:30:25;;;;;;;;;;;20.90;99.90;;;;;;4916361;29;19970;-84
2022/08/19 08:32:51;;;;;;;;;;;20.90;99.90;;;;;;4932000;29;19911;-83
2022/08/19 08:35:18;;;;;;;;;;;21.00;99.90;;;;;;4932626;29;19914;-84
2022/08/19 08:37:44;;;;;;;;;;;21.20;99.90;;;;;;4911932;29;20018;-83
2022/08/19 08:40:45;;;;;;;;;;;21.20;99.90;;;;;;4912995;29;20002;-83
2022/08/19 08:43:11;;;;;;;;;;;21.20;99.90;;;;;;4913703;29;19914;-83
2022/08/19 08:45:41;;;;;;;;;;;21.10;99.90;;;;;;4914710;29;19911;-82
2022/08/19 08:48:13;;;;;;;;;;;21.10;99.90;;;;;;4912543;29;19915;-84
2022/08/19 08:50:41;;;;;;;;;;;21.00;99.90;;;;;;4932579;29;20580;-82
2022/08/19 08:53:08;;;;;;;;;;;21.00;99.90;;;;;;4946999;28;19910;-83
2022/08/19 08:55:35;;;;;;;;;;;20.90;99.90;;;;;;4945783;28;20522;-83
2022/08/19 08:58:05;;;;;;;;;;;20.90;99.90;;;;;;4933256;29;19989;-84
2022/08/19 09:00:33;;;;;;;;;;;20.80;99.90;;;;;;4931993;29;19926;-82
2022/08/19 09:03:01;;;;;;;;;;;20.70;99.90;;;;;;4915381;29;19914;-84
2022/08/19 09:05:38;;;;;;;;;;;20.70;99.90;;;;;;4931819;29;19922;-83
2022/08/19 09:08:08;;;;;;;;;;;20.80;99.90;;;;;;4916107;29;20482;-83
2022/08/19 09:10:39;;;;;;;;;;;20.80;99.90;;;;;;4946052;28;19917;-84
2022/08/19 09:13:22;;;;;;;;;;;20.80;99.90;;;;;;4916278;29;20450;-82
2022/08/19 09:15:49;;;;;;;;;;;20.80;99.90;;;;;;4932133;29;20386;-82
2022/08/19 09:18:16;;;;;;;;;;;20.70;99.90;;;;;;4928606;29;20021;-86
2022/08/19 09:20:42;;;;;;;;;;;20.70;99.90;;;;;;4914518;29;19921;-82
2022/08/19 09:23:08;;;;;;;;;;;20.70;99.90;;;;;;4915335;29;19919;-82
2022/08/19 09:25:34;;;;;;;;;;;20.70;99.90;;;;;;4915520;29;20036;-83
2022/08/19 09:28:02;;;;;;;;;;;20.70;99.90;;;;;;4936051;29;19922;-82
2022/08/19 09:30:31;;;;;;;;;;;20.70;99.90;;;;;;4945526;28;20292;-82
2022/08/19 09:32:57;;;;;;;;;;;20.80;99.90;;;;;;4915748;29;19911;-83
2022/08/19 09:35:27;;;;;;;;;;;20.90;99.90;;;;;;4939348;28;20063;-85
2022/08/19 09:37:53;;;;;;;;;;;21.00;99.90;;;;;;4935279;29;19910;-83
2022/08/19 09:40:19;;;;;;;;;;;21.10;99.90;;;;;;4917513;29;19918;-83
2022/08/19 09:42:47;;;;;;;;;;;21.10;99.90;;;;;;4934816;29;20407;-82
2022/08/19 09:45:13;;;;;;;;;;;21.10;99.90;;;;;;4950487;28;19911;-83
2022/08/19 09:47:39;;;;;;;;;;;21.00;99.90;;;;;;4935148;29;19950;-84
2022/08/19 09:50:06;;;;;;;;;;;21.10;99.90;;;;;;4934540;29;19950;-82
2022/08/19 09:52:32;;;;;;;;;;;21.00;99.90;;;;;;4930582;29;20394;-82
2022/08/19 09:54:58;;;;;;;;;;;21.00;99.90;;;;;;4946338;28;20359;-83
2022/08/19 09:57:24;;;;;;;;;;;21.10;99.90;;;;;;4917289;29;19997;-83
2022/08/19 09:59:50;;;;;;;;;;;21.10;99.90;;;;;;4951016;29;19915;-84
2022/08/19 10:02:15;;;;;;;;;;;21.20;99.90;;;;;;4918684;29;20009;-82
2022/08/19 10:07:25;;;;;;;;;;;21.20;99.90;;;;;;4949532;29;20021;-82
2022/08/19 10:09:51;;;;;;;;;;;21.10;99.90;;;;;;4915106;29;20001;-82
2022/08/19 10:12:16;;;;;;;;;;;21.20;99.90;;;;;;4948152;29;20014;-83
2022/08/19 10:14:42;;;;;;;;;;;21.30;99.90;;;;;;4949695;29;19915;-83
2022/08/19 10:17:08;;;;;;;;;;;21.30;99.90;;;;;;4934141;29;19922;-82
2022/08/19 10:19:35;;;;;;;;;;;21.30;99.90;;;;;;4930406;29;19915;-81
2022/08/19 10:22:05;;;;;;;;;;;21.40;99.90;;;;;;4924534;29;19972;-82
2022/08/19 10:24:31;;;;;;;;;;;21.40;99.90;;;;;;4935063;29;19914;-82
2022/08/19 10:26:57;;;;;;;;;;;21.30;99.90;;;;;;4933614;29;19911;-85
2022/08/19 10:29:22;;;;;;;;;;;21.30;99.90;;;;;;4949557;28;19914;-81
2022/08/19 10:31:48;;;;;;;;;;;21.30;99.90;;;;;;4937205;29;19915;-81
2022/08/19 10:34:14;;;;;;;;;;;21.40;99.90;;;;;;4949032;28;19914;-82
2022/08/19 10:36:39;;;;;;;;;;;21.40;99.90;;;;;;4932834;29;19911;-84
2022/08/19 10:39:07;;;;;;;;;;;21.50;99.90;;;;;;4933320;29;19919;-83
2022/08/19 10:41:34;;;;;;;;;;;21.60;99.90;;;;;;4932402;29;19922;-81
2022/08/19 10:44:07;;;;;;;;;;;21.70;99.90;;;;;;4932676;29;19915;-84
2022/08/19 10:46:35;;;;;;;;;;;21.80;99.90;;;;;;4923710;29;19911;-81
2022/08/19 10:49:01;;;;;;;;;;;21.90;99.90;;;;;;4932971;29;19911;-81
2022/08/19 10:54:11;;;;;;;;;;;21.90;99.90;;;;;;4946444;28;20013;-83
2022/08/19 10:56:52;;;;;;;;;;;22.00;99.90;;;;;;4944893;28;20018;-82
2022/08/19 10:59:18;;;;;;;;;;;21.90;99.90;;;;;;4946053;29;19915;-82
2022/08/19 11:01:44;;;;;;;;;;;21.90;99.90;;;;;;4929191;29;19917;-83
2022/08/19 11:04:11;;;;;;;;;;;21.90;99.90;;;;;;4927815;29;20351;-84
2022/08/19 11:06:38;;;;;;;;;;;22.00;99.90;;;;;;4946465;28;20496;-81
2022/08/19 11:09:04;;;;;;;;;;;22.10;99.90;;;;;;4916924;29;19911;-80
2022/08/19 11:11:30;;;;;;;;;;;22.20;99.90;;;;;;4924106;29;19918;-81
2022/08/19 11:13:55;;;;;;;;;;;22.20;99.90;;;;;;4948716;29;19919;-81
2022/08/19 11:16:22;;;;;;;;;;;22.10;99.90;;;;;;4930943;29;19958;-81
2022/08/19 11:18:50;;;;;;;;;;;22.10;99.90;;;;;;4949007;28;20434;-84
2022/08/19 11:21:18;;;;;;;;;;;22.00;99.90;;;;;;4932418;29;19954;-80
2022/08/19 11:23:45;;;;;;;;;;;21.90;99.90;;;;;;4913851;29;20402;-81
2022/08/19 11:26:11;;;;;;;;;;;21.80;99.90;;;;;;4934298;29;19911;-82
2022/08/19 11:28:36;;;;;;;;;;;21.70;99.90;;;;;;4929494;29;19911;-81
2022/08/19 11:31:03;;;;;;;;;;;21.60;99.90;;;;;;4917769;29;20698;-80
2022/08/19 11:33:29;;;;;;;;;;;21.50;99.90;;;;;;4943458;29;19937;-81
2022/08/19 11:35:57;;;;;;;;;;;21.40;99.90;;;;;;4915394;29;20410;-82
2022/08/19 11:38:22;;;;;;;;;;;21.40;99.90;;;;;;4928914;29;19966;-81
2022/08/19 11:40:58;;;;;;;;;;;21.40;99.90;;;;;;4903445;29;20013;-81
2022/08/19 11:43:26;;;;;;;;;;;21.40;99.90;;;;;;4947968;29;19919;-81
2022/08/19 11:45:52;;;;;;;;;;;21.30;99.90;;;;;;4928299;29;19911;-82
2022/08/19 11:48:21;;;;;;;;;;;21.30;99.90;;;;;;4948646;28;19911;-81
2022/08/19 11:50:48;;;;;;;;;;;21.20;99.90;;;;;;4931787;29;19911;-84
2022/08/19 11:53:13;;;;;;;;;;;21.20;99.90;;;;;;4932365;29;19917;-81
2022/08/19 11:55:39;;;;;;;;;;;21.20;99.90;;;;;;4931608;29;20001;-80
2022/08/19 11:58:07;;;;;;;;;;;21.10;99.90;;;;;;4948364;28;19922;-81
2022/08/19 12:00:33;;;;;;;;;;;21.10;99.90;;;;;;4948290;29;20371;-81
2022/08/19 12:02:59;;;;;;;;;;;21.10;99.90;;;;;;4933659;29;19919;-80
2022/08/19 12:05:25;;;;;;;;;;;21.00;99.90;;;;;;4948130;28;20287;-80
2022/08/19 12:07:51;;;;;;;;;;;21.00;99.90;;;;;;4916624;29;20005;-81
2022/08/19 12:10:16;;;;;;;;;;;21.00;99.90;;;;;;4926847;29;20001;-81
2022/08/19 12:12:45;;;;;;;;;;;20.90;99.90;;;;;;4929111;29;20380;-82
2022/08/19 12:15:11;;;;;;;;;;;20.80;99.90;;;;;;4926873;29;19922;-82
2022/08/19 12:17:37;;;;;;;;;;;20.70;99.90;;;;;;4932869;29;19911;-81
2022/08/19 12:20:04;;;;;;;;;;;20.70;99.90;;;;;;4932253;29;19961;-80
2022/08/19 12:22:29;;;;;;;;;;;20.70;99.90;;;;;;4944218;29;20014;-81
2022/08/19 12:24:55;;;;;;;;;;;20.60;99.90;;;;;;4928559;29;19987;-81
2022/08/19 12:27:21;;;;;;;;;;;20.50;99.90;;;;;;4929032;29;20431;-81
2022/08/19 12:29:46;;;;;;;;;;;20.50;99.90;;;;;;4944548;29;20100;-84
2022/08/19 12:32:12;;;;;;;;;;;20.60;99.90;;;;;;4928927;29;19919;-81
2022/08/19 12:34:38;;;;;;;;;;;20.60;99.90;;;;;;4928233;29;19997;-82
2022/08/19 12:37:05;;;;;;;;;;;20.50;99.90;;;;;;4929466;29;19911;-81
2022/08/19 12:39:33;;;;;;;;;;;20.50;99.90;;;;;;4931706;29;19945;-81
2022/08/19 12:41:59;;;;;;;;;;;20.50;99.90;;;;;;4920674;29;19911;-82
2022/08/19 12:44:25;;;;;;;;;;;20.40;99.90;;;;;;4918613;29;19918;-81
2022/08/19 12:46:50;;;;;;;;;;;20.40;99.90;;;;;;4915757;29;19914;-81
2022/08/19 12:49:16;;;;;;;;;;;20.40;99.90;;;;;;4932387;29;19962;-81
2022/08/19 12:51:42;;;;;;;;;;;20.30;99.90;;;;;;4946663;28;20385;-83
2022/08/19 12:54:08;;;;;;;;;;;20.30;99.90;;;;;;4931454;29;19918;-84
2022/08/19 12:56:33;;;;;;;;;;;20.30;99.90;;;;;;4926351;29;19919;-82
2022/08/19 12:59:03;;;;;;;;;;;20.30;99.90;;;;;;4926387;29;19922;-81
2022/08/19 13:01:32;;;;;;;;;;;20.40;99.90;;;;;;4932142;29;19911;-81
2022/08/19 13:03:58;;;;;;;;;;;20.30;99.90;;;;;;4925440;29;19915;-81
2022/08/19 13:06:24;;;;;;;;;;;20.40;99.90;;;;;;4934817;29;20463;-80
2022/08/19 13:08:49;;;;;;;;;;;20.40;99.90;;;;;;4915145;29;19993;-80
2022/08/19 13:11:17;;;;;;;;;;;20.40;99.90;;;;;;4926595;29;19915;-81
2022/08/19 13:13:44;;;;;;;;;;;20.40;99.90;;;;;;4932752;29;19922;-82
2022/08/19 13:16:10;;;;;;;;;;;20.40;99.90;;;;;;4924886;29;19922;-81
2022/08/19 13:18:37;;;;;;;;;;;20.50;99.90;;;;;;4914526;29;19911;-83
2022/08/19 13:21:04;;;;;;;;;;;20.50;99.90;;;;;;4938647;29;19911;-82
2022/08/19 13:23:30;;;;;;;;;;;20.60;99.90;;;;;;4931981;29;19919;-82
2022/08/19 13:25:59;;;;;;;;;;;20.70;99.90;;;;;;4937754;29;19918;-82
2022/08/19 13:28:25;;;;;;;;;;;20.70;99.90;;;;;;4932332;29;19915;-83
2022/08/19 13:33:35;;;;;;;;;;;20.70;99.90;;;;;;4915879;29;20109;-82
2022/08/19 13:36:00;;;;;;;;;;;20.70;99.90;;;;;;4931397;29;19918;-81
2022/08/19 13:38:26;;;;;;;;;;;20.70;99.90;;;;;;4947997;29;19927;-81
2022/08/19 13:40:53;;;;;;;;;;;20.70;99.90;;;;;;4933990;29;19922;-81
2022/08/19 13:43:21;;;;;;;;;;;20.70;99.90;;;;;;4917321;29;19915;-81
2022/08/19 13:45:48;;;;;;;;;;;20.70;99.90;;;;;;4950165;29;19921;-83
2022/08/19 13:48:13;;;;;;;;;;;20.70;99.90;;;;;;4935898;29;19914;-82
2022/08/19 13:50:41;;;;;;;;;;;20.80;99.90;;;;;;4927210;29;19982;-84
2022/08/19 13:53:08;;;;;;;;;;;20.80;99.90;;;;;;4933984;29;20439;-81
2022/08/19 13:55:34;;;;;;;;;;;20.80;99.90;;;;;;4934174;29;20554;-83
2022/08/19 13:58:01;;;;;;;;;;;20.90;99.90;;;;;;4948139;28;19949;-83
2022/08/19 14:00:28;;;;;;;;;;;20.90;99.90;;;;;;4920242;29;19910;-81
2022/08/19 14:02:55;;;;;;;;;;;20.90;99.90;;;;;;4950021;28;19997;-82
2022/08/19 14:05:21;;;;;;;;;;;21.00;99.90;;;;;;4933416;29;19917;-82
2022/08/19 14:07:47;;;;;;;;;;;21.00;99.90;;;;;;4916376;29;20009;-81
2022/08/19 14:10:14;;;;;;;;;;;21.10;99.90;;;;;;4918171;29;19958;-81
2022/08/19 14:12:40;;;;;;;;;;;21.10;99.90;;;;;;4950466;29;19914;-82
2022/08/19 14:15:07;;;;;;;;;;;21.10;99.90;;;;;;4935126;29;19965;-82
2022/08/19 14:17:34;;;;;;;;;;;21.20;99.90;;;;;;4916130;29;19911;-82
2022/08/19 14:20:07;;;;;;;;;;;21.10;99.90;;;;;;4915993;29;20009;-82
2022/08/19 14:22:34;;;;;;;;;;;21.10;99.90;;;;;;4946784;28;20431;-81
2022/08/19 14:25:00;;;;;;;;;;;21.00;99.90;;;;;;4934313;29;19977;-81
2022/08/19 14:27:25;;;;;;;;;;;21.00;99.90;;;;;;4934295;29;19946;-81
2022/08/19 14:29:51;;;;;;;;;;;21.00;99.90;;;;;;4934849;29;20364;-82
2022/08/19 14:32:17;;;;;;;;;;;21.00;99.90;;;;;;4932269;29;19911;-82
2022/08/19 14:34:45;;;;;;;;;;;21.00;99.90;;;;;;4919041;29;19918;-82
2022/08/19 14:37:14;;;;;;;;;;;21.00;99.90;;;;;;4931926;29;19907;-83
2022/08/19 14:39:40;;;;;;;;;;;21.00;99.90;;;;;;4918461;29;19918;-82